sensor_id;sensor_type;location;lat;lon;timestamp;P1;durP1;ratioP1;P2;durP2;ratioP2
36189;SDS011;22232;50.914;13.858;2023-08-12T00:01:24;5.60;;;2.90;;
36189;SDS011;22232;50.914;13.858;2023-08-12T00:03:53;4.38;;;2.83;;
36189;SDS011;22232;50.914;13.858;2023-08-12T00:06:21;4.28;;;2.92;;
36189;SDS011;22232;50.914;13.858;2023-08-12T00:08:49;9.57;;;3.10;;
36189;SDS011;22232;50.914;13.858;2023-08-12T00:11:17;4.55;;;3.25;;
36189;SDS011;22232;50.914;13.858;2023-08-12T00:13:44;3.15;;;2.63;;
36189;SDS011;22232;50.914;13.858;2023-08-12T00:16:12;3.95;;;2.78;;
36189;SDS011;22232;50.914;13.858;2023-08-12T00:18:40;6.78;;;3.30;;
36189;SDS011;22232;50.914;13.858;2023-08-12T00:21:08;7.13;;;3.25;;
36189;SDS011;22232;50.914;13.858;2023-08-12T00:23:40;3.63;;;2.80;;
36189;SDS011;22232;50.914;13.858;2023-08-12T00:26:08;4.43;;;2.97;;
36189;SDS011;22232;50.914;13.858;2023-08-12T00:28:36;6.30;;;3.25;;
36189;SDS011;22232;50.914;13.858;2023-08-12T00:31:04;4.68;;;3.28;;
36189;SDS011;22232;50.914;13.858;2023-08-12T00:33:32;5.03;;;3.03;;
36189;SDS011;22232;50.914;13.858;2023-08-12T00:36:01;6.13;;;3.17;;
36189;SDS011;22232;50.914;13.858;2023-08-12T00:38:28;5.93;;;3.22;;
36189;SDS011;22232;50.914;13.858;2023-08-12T00:40:56;5.13;;;3.10;;
36189;SDS011;22232;50.914;13.858;2023-08-12T00:43:25;5.38;;;3.22;;
36189;SDS011;22232;50.914;13.858;2023-08-12T00:45:53;5.57;;;3.28;;
36189;SDS011;22232;50.914;13.858;2023-08-12T00:48:20;6.00;;;3.20;;
36189;SDS011;22232;50.914;13.858;2023-08-12T00:50:50;6.05;;;3.17;;
36189;SDS011;22232;50.914;13.858;2023-08-12T00:53:19;5.75;;;3.20;;
36189;SDS011;22232;50.914;13.858;2023-08-12T00:55:48;6.53;;;2.90;;
36189;SDS011;22232;50.914;13.858;2023-08-12T00:58:16;4.63;;;2.95;;
36189;SDS011;22232;50.914;13.858;2023-08-12T01:00:45;5.90;;;3.15;;
36189;SDS011;22232;50.914;13.858;2023-08-12T01:03:13;7.72;;;3.03;;
36189;SDS011;22232;50.914;13.858;2023-08-12T01:05:41;3.28;;;2.90;;
36189;SDS011;22232;50.914;13.858;2023-08-12T01:08:09;5.00;;;3.15;;
36189;SDS011;22232;50.914;13.858;2023-08-12T01:10:37;4.57;;;3.30;;
36189;SDS011;22232;50.914;13.858;2023-08-12T01:13:19;5.72;;;2.90;;
36189;SDS011;22232;50.914;13.858;2023-08-12T01:16:13;4.18;;;2.90;;
36189;SDS011;22232;50.914;13.858;2023-08-12T01:18:44;5.43;;;3.28;;
36189;SDS011;22232;50.914;13.858;2023-08-12T01:21:15;5.20;;;2.97;;
36189;SDS011;22232;50.914;13.858;2023-08-12T01:23:44;3.78;;;3.03;;
36189;SDS011;22232;50.914;13.858;2023-08-12T01:26:13;4.50;;;3.08;;
36189;SDS011;22232;50.914;13.858;2023-08-12T01:28:40;5.57;;;2.80;;
36189;SDS011;22232;50.914;13.858;2023-08-12T01:31:31;6.45;;;3.13;;
36189;SDS011;22232;50.914;13.858;2023-08-12T01:34:12;3.67;;;2.80;;
36189;SDS011;22232;50.914;13.858;2023-08-12T01:36:56;4.82;;;2.90;;
36189;SDS011;22232;50.914;13.858;2023-08-12T01:39:25;4.20;;;2.65;;
36189;SDS011;22232;50.914;13.858;2023-08-12T01:41:54;3.03;;;2.70;;
36189;SDS011;22232;50.914;13.858;2023-08-12T01:44:23;2.95;;;2.72;;
36189;SDS011;22232;50.914;13.858;2023-08-12T01:46:51;4.68;;;2.53;;
36189;SDS011;22232;50.914;13.858;2023-08-12T01:49:19;4.53;;;3.03;;
36189;SDS011;22232;50.914;13.858;2023-08-12T01:51:47;5.30;;;3.03;;
36189;SDS011;22232;50.914;13.858;2023-08-12T01:54:14;4.80;;;2.90;;
36189;SDS011;22232;50.914;13.858;2023-08-12T01:56:42;6.45;;;2.90;;
36189;SDS011;22232;50.914;13.858;2023-08-12T01:59:10;5.43;;;2.90;;
36189;SDS011;22232;50.914;13.858;2023-08-12T02:01:38;4.95;;;2.72;;
36189;SDS011;22232;50.914;13.858;2023-08-12T02:04:06;5.97;;;3.15;;
36189;SDS011;22232;50.914;13.858;2023-08-12T02:06:36;5.40;;;2.70;;
36189;SDS011;22232;50.914;13.858;2023-08-12T02:09:03;7.45;;;3.42;;
36189;SDS011;22232;50.914;13.858;2023-08-12T02:11:32;5.63;;;2.90;;
36189;SDS011;22232;50.914;13.858;2023-08-12T02:13:59;3.70;;;2.80;;
36189;SDS011;22232;50.914;13.858;2023-08-12T02:16:27;4.07;;;2.85;;
36189;SDS011;22232;50.914;13.858;2023-08-12T02:18:56;4.07;;;2.83;;
36189;SDS011;22232;50.914;13.858;2023-08-12T02:21:23;5.45;;;3.05;;
36189;SDS011;22232;50.914;13.858;2023-08-12T02:23:51;4.75;;;2.70;;
36189;SDS011;22232;50.914;13.858;2023-08-12T02:26:19;3.15;;;2.60;;
36189;SDS011;22232;50.914;13.858;2023-08-12T02:28:47;3.78;;;2.83;;
36189;SDS011;22232;50.914;13.858;2023-08-12T02:31:15;5.05;;;2.80;;
36189;SDS011;22232;50.914;13.858;2023-08-12T02:33:43;4.15;;;2.72;;
36189;SDS011;22232;50.914;13.858;2023-08-12T02:36:11;4.07;;;2.88;;
36189;SDS011;22232;50.914;13.858;2023-08-12T02:38:39;3.60;;;3.00;;
36189;SDS011;22232;50.914;13.858;2023-08-12T02:41:08;3.50;;;3.17;;
36189;SDS011;22232;50.914;13.858;2023-08-12T02:43:36;5.15;;;2.80;;
36189;SDS011;22232;50.914;13.858;2023-08-12T02:46:04;7.03;;;3.25;;
36189;SDS011;22232;50.914;13.858;2023-08-12T02:48:32;6.55;;;3.38;;
36189;SDS011;22232;50.914;13.858;2023-08-12T02:51:00;5.45;;;2.72;;
36189;SDS011;22232;50.914;13.858;2023-08-12T02:53:27;4.38;;;3.05;;
36189;SDS011;22232;50.914;13.858;2023-08-12T02:55:55;6.05;;;3.35;;
36189;SDS011;22232;50.914;13.858;2023-08-12T02:58:23;3.40;;;2.88;;
36189;SDS011;22232;50.914;13.858;2023-08-12T03:00:51;4.32;;;2.58;;
36189;SDS011;22232;50.914;13.858;2023-08-12T03:03:19;4.03;;;2.60;;
36189;SDS011;22232;50.914;13.858;2023-08-12T03:05:47;3.88;;;3.13;;
36189;SDS011;22232;50.914;13.858;2023-08-12T03:08:15;3.63;;;2.70;;
36189;SDS011;22232;50.914;13.858;2023-08-12T03:10:45;4.13;;;2.80;;
36189;SDS011;22232;50.914;13.858;2023-08-12T03:13:14;3.90;;;2.78;;
36189;SDS011;22232;50.914;13.858;2023-08-12T03:15:42;3.47;;;2.67;;
36189;SDS011;22232;50.914;13.858;2023-08-12T03:18:10;2.72;;;2.28;;
36189;SDS011;22232;50.914;13.858;2023-08-12T03:20:39;4.78;;;3.13;;
36189;SDS011;22232;50.914;13.858;2023-08-12T03:23:07;3.88;;;3.08;;
36189;SDS011;22232;50.914;13.858;2023-08-12T03:25:35;3.95;;;2.55;;
36189;SDS011;22232;50.914;13.858;2023-08-12T03:28:03;3.03;;;2.72;;
36189;SDS011;22232;50.914;13.858;2023-08-12T03:30:32;3.22;;;2.55;;
36189;SDS011;22232;50.914;13.858;2023-08-12T03:33:00;4.65;;;2.92;;
36189;SDS011;22232;50.914;13.858;2023-08-12T03:35:31;6.35;;;2.50;;
36189;SDS011;22232;50.914;13.858;2023-08-12T03:37:59;6.88;;;3.38;;
36189;SDS011;22232;50.914;13.858;2023-08-12T03:40:27;4.35;;;2.72;;
36189;SDS011;22232;50.914;13.858;2023-08-12T03:42:56;6.20;;;3.08;;
36189;SDS011;22232;50.914;13.858;2023-08-12T03:45:25;3.33;;;2.65;;
36189;SDS011;22232;50.914;13.858;2023-08-12T03:47:53;5.50;;;2.80;;
36189;SDS011;22232;50.914;13.858;2023-08-12T03:50:21;6.43;;;2.90;;
36189;SDS011;22232;50.914;13.858;2023-08-12T03:52:49;5.22;;;3.25;;
36189;SDS011;22232;50.914;13.858;2023-08-12T03:55:17;4.85;;;3.42;;
36189;SDS011;22232;50.914;13.858;2023-08-12T03:57:45;5.03;;;2.60;;
36189;SDS011;22232;50.914;13.858;2023-08-12T04:00:13;4.68;;;3.10;;
36189;SDS011;22232;50.914;13.858;2023-08-12T04:02:40;6.28;;;3.00;;
36189;SDS011;22232;50.914;13.858;2023-08-12T04:05:08;4.60;;;3.33;;
36189;SDS011;22232;50.914;13.858;2023-08-12T04:07:36;5.65;;;3.00;;
36189;SDS011;22232;50.914;13.858;2023-08-12T04:10:04;4.80;;;2.97;;
36189;SDS011;22232;50.914;13.858;2023-08-12T04:12:32;4.97;;;3.35;;
36189;SDS011;22232;50.914;13.858;2023-08-12T04:15:00;5.15;;;3.03;;
36189;SDS011;22232;50.914;13.858;2023-08-12T04:17:31;6.20;;;3.28;;
36189;SDS011;22232;50.914;13.858;2023-08-12T04:20:00;6.05;;;3.67;;
36189;SDS011;22232;50.914;13.858;2023-08-12T04:22:28;6.82;;;3.17;;
36189;SDS011;22232;50.914;13.858;2023-08-12T04:24:56;4.90;;;2.72;;
36189;SDS011;22232;50.914;13.858;2023-08-12T04:27:24;6.70;;;2.58;;
36189;SDS011;22232;50.914;13.858;2023-08-12T04:29:52;4.15;;;2.85;;
36189;SDS011;22232;50.914;13.858;2023-08-12T04:32:20;3.92;;;2.90;;
36189;SDS011;22232;50.914;13.858;2023-08-12T04:34:50;6.18;;;3.30;;
36189;SDS011;22232;50.914;13.858;2023-08-12T04:37:17;4.88;;;3.28;;
36189;SDS011;22232;50.914;13.858;2023-08-12T04:39:46;6.15;;;3.08;;
36189;SDS011;22232;50.914;13.858;2023-08-12T04:42:14;5.82;;;3.40;;
36189;SDS011;22232;50.914;13.858;2023-08-12T04:44:42;5.68;;;3.50;;
36189;SDS011;22232;50.914;13.858;2023-08-12T04:47:10;7.95;;;3.30;;
36189;SDS011;22232;50.914;13.858;2023-08-12T04:49:38;5.45;;;3.30;;
36189;SDS011;22232;50.914;13.858;2023-08-12T04:52:07;4.85;;;2.95;;
36189;SDS011;22232;50.914;13.858;2023-08-12T04:54:35;5.32;;;3.28;;
36189;SDS011;22232;50.914;13.858;2023-08-12T04:57:03;5.30;;;3.42;;
36189;SDS011;22232;50.914;13.858;2023-08-12T04:59:31;6.07;;;3.47;;
36189;SDS011;22232;50.914;13.858;2023-08-12T05:01:58;4.22;;;2.97;;
36189;SDS011;22232;50.914;13.858;2023-08-12T05:04:33;5.10;;;3.13;;
36189;SDS011;22232;50.914;13.858;2023-08-12T05:07:01;4.47;;;3.28;;
36189;SDS011;22232;50.914;13.858;2023-08-12T05:09:29;3.88;;;2.85;;
36189;SDS011;22232;50.914;13.858;2023-08-12T05:11:57;4.00;;;2.83;;
36189;SDS011;22232;50.914;13.858;2023-08-12T05:14:25;3.13;;;2.65;;
36189;SDS011;22232;50.914;13.858;2023-08-12T05:16:53;5.22;;;2.70;;
36189;SDS011;22232;50.914;13.858;2023-08-12T05:19:21;4.10;;;2.83;;
36189;SDS011;22232;50.914;13.858;2023-08-12T05:21:48;5.40;;;3.00;;
36189;SDS011;22232;50.914;13.858;2023-08-12T05:24:16;4.40;;;3.50;;
36189;SDS011;22232;50.914;13.858;2023-08-12T05:26:44;4.40;;;3.42;;
36189;SDS011;22232;50.914;13.858;2023-08-12T05:29:11;6.07;;;3.70;;
36189;SDS011;22232;50.914;13.858;2023-08-12T05:31:39;4.25;;;3.55;;
36189;SDS011;22232;50.914;13.858;2023-08-12T05:34:07;9.02;;;3.70;;
36189;SDS011;22232;50.914;13.858;2023-08-12T05:36:35;4.53;;;3.20;;
36189;SDS011;22232;50.914;13.858;2023-08-12T05:39:03;7.43;;;3.60;;
36189;SDS011;22232;50.914;13.858;2023-08-12T05:41:31;4.97;;;2.88;;
36189;SDS011;22232;50.914;13.858;2023-08-12T05:43:59;5.65;;;3.17;;
36189;SDS011;22232;50.914;13.858;2023-08-12T05:46:27;4.53;;;3.15;;
36189;SDS011;22232;50.914;13.858;2023-08-12T05:48:55;7.65;;;3.30;;
36189;SDS011;22232;50.914;13.858;2023-08-12T05:51:22;4.80;;;3.20;;
36189;SDS011;22232;50.914;13.858;2023-08-12T05:53:50;5.47;;;3.20;;
36189;SDS011;22232;50.914;13.858;2023-08-12T05:56:18;5.22;;;3.08;;
36189;SDS011;22232;50.914;13.858;2023-08-12T05:58:45;6.80;;;3.38;;
36189;SDS011;22232;50.914;13.858;2023-08-12T06:01:13;4.47;;;3.05;;
36189;SDS011;22232;50.914;13.858;2023-08-12T06:03:41;5.05;;;3.08;;
36189;SDS011;22232;50.914;13.858;2023-08-12T06:06:09;4.03;;;3.00;;
36189;SDS011;22232;50.914;13.858;2023-08-12T06:08:37;5.60;;;3.50;;
36189;SDS011;22232;50.914;13.858;2023-08-12T06:11:04;5.97;;;3.50;;
36189;SDS011;22232;50.914;13.858;2023-08-12T06:13:32;7.82;;;3.55;;
36189;SDS011;22232;50.914;13.858;2023-08-12T06:16:00;4.75;;;3.20;;
36189;SDS011;22232;50.914;13.858;2023-08-12T06:18:28;6.22;;;3.03;;
36189;SDS011;22232;50.914;13.858;2023-08-12T06:20:56;4.57;;;3.33;;
36189;SDS011;22232;50.914;13.858;2023-08-12T06:23:23;4.72;;;3.38;;
36189;SDS011;22232;50.914;13.858;2023-08-12T06:25:53;6.53;;;3.28;;
36189;SDS011;22232;50.914;13.858;2023-08-12T06:28:21;8.57;;;2.90;;
36189;SDS011;22232;50.914;13.858;2023-08-12T06:30:49;4.72;;;3.05;;
36189;SDS011;22232;50.914;13.858;2023-08-12T06:33:17;6.05;;;3.08;;
36189;SDS011;22232;50.914;13.858;2023-08-12T06:35:44;5.63;;;3.00;;
36189;SDS011;22232;50.914;13.858;2023-08-12T06:38:16;5.28;;;3.08;;
36189;SDS011;22232;50.914;13.858;2023-08-12T06:40:44;6.85;;;3.38;;
36189;SDS011;22232;50.914;13.858;2023-08-12T06:43:12;5.63;;;3.03;;
36189;SDS011;22232;50.914;13.858;2023-08-12T06:45:39;8.93;;;3.40;;
36189;SDS011;22232;50.914;13.858;2023-08-12T06:48:07;3.78;;;3.00;;
36189;SDS011;22232;50.914;13.858;2023-08-12T06:50:35;5.50;;;2.80;;
36189;SDS011;22232;50.914;13.858;2023-08-12T06:53:03;4.80;;;2.92;;
36189;SDS011;22232;50.914;13.858;2023-08-12T06:55:31;3.78;;;2.78;;
36189;SDS011;22232;50.914;13.858;2023-08-12T06:57:59;4.38;;;3.25;;
36189;SDS011;22232;50.914;13.858;2023-08-12T07:00:27;4.10;;;2.75;;
36189;SDS011;22232;50.914;13.858;2023-08-12T07:02:55;6.63;;;2.80;;
36189;SDS011;22232;50.914;13.858;2023-08-12T07:05:23;3.90;;;2.95;;
36189;SDS011;22232;50.914;13.858;2023-08-12T07:07:51;6.28;;;3.30;;
36189;SDS011;22232;50.914;13.858;2023-08-12T07:10:19;6.57;;;3.10;;
36189;SDS011;22232;50.914;13.858;2023-08-12T07:12:50;6.90;;;3.58;;
36189;SDS011;22232;50.914;13.858;2023-08-12T07:15:17;8.27;;;3.10;;
36189;SDS011;22232;50.914;13.858;2023-08-12T07:17:45;4.30;;;3.00;;
36189;SDS011;22232;50.914;13.858;2023-08-12T07:20:13;6.57;;;3.08;;
36189;SDS011;22232;50.914;13.858;2023-08-12T07:22:41;6.03;;;3.17;;
36189;SDS011;22232;50.914;13.858;2023-08-12T07:25:09;5.47;;;3.20;;
36189;SDS011;22232;50.914;13.858;2023-08-12T07:27:37;5.88;;;2.58;;
36189;SDS011;22232;50.914;13.858;2023-08-12T07:30:05;3.90;;;2.92;;
36189;SDS011;22232;50.914;13.858;2023-08-12T07:32:33;6.00;;;2.90;;
36189;SDS011;22232;50.914;13.858;2023-08-12T07:35:01;4.13;;;2.90;;
36189;SDS011;22232;50.914;13.858;2023-08-12T07:37:28;6.40;;;3.08;;
36189;SDS011;22232;50.914;13.858;2023-08-12T07:39:56;4.63;;;3.05;;
36189;SDS011;22232;50.914;13.858;2023-08-12T07:42:24;4.10;;;3.00;;
36189;SDS011;22232;50.914;13.858;2023-08-12T07:44:52;3.33;;;2.50;;
36189;SDS011;22232;50.914;13.858;2023-08-12T07:47:20;6.57;;;2.80;;
36189;SDS011;22232;50.914;13.858;2023-08-12T07:49:47;5.60;;;3.25;;
36189;SDS011;22232;50.914;13.858;2023-08-12T07:52:15;5.78;;;3.00;;
36189;SDS011;22232;50.914;13.858;2023-08-12T07:54:43;3.78;;;2.90;;
36189;SDS011;22232;50.914;13.858;2023-08-12T07:57:10;6.05;;;2.97;;
36189;SDS011;22232;50.914;13.858;2023-08-12T07:59:38;6.18;;;3.05;;
36189;SDS011;22232;50.914;13.858;2023-08-12T08:02:06;3.63;;;2.60;;
36189;SDS011;22232;50.914;13.858;2023-08-12T08:04:34;3.92;;;2.65;;
36189;SDS011;22232;50.914;13.858;2023-08-12T08:07:01;4.20;;;2.88;;
36189;SDS011;22232;50.914;13.858;2023-08-12T08:09:29;4.72;;;2.50;;
36189;SDS011;22232;50.914;13.858;2023-08-12T08:11:57;4.05;;;2.70;;
36189;SDS011;22232;50.914;13.858;2023-08-12T08:14:25;2.75;;;2.45;;
36189;SDS011;22232;50.914;13.858;2023-08-12T08:16:53;3.45;;;2.20;;
36189;SDS011;22232;50.914;13.858;2023-08-12T08:19:21;4.13;;;2.50;;
36189;SDS011;22232;50.914;13.858;2023-08-12T08:21:56;5.07;;;2.63;;
36189;SDS011;22232;50.914;13.858;2023-08-12T08:24:24;3.40;;;2.40;;
36189;SDS011;22232;50.914;13.858;2023-08-12T08:26:52;5.70;;;2.47;;
36189;SDS011;22232;50.914;13.858;2023-08-12T08:29:20;3.95;;;2.20;;
36189;SDS011;22232;50.914;13.858;2023-08-12T08:31:49;5.28;;;2.50;;
36189;SDS011;22232;50.914;13.858;2023-08-12T08:34:16;3.58;;;2.50;;
36189;SDS011;22232;50.914;13.858;2023-08-12T08:36:44;4.55;;;2.22;;
36189;SDS011;22232;50.914;13.858;2023-08-12T08:39:12;4.68;;;2.25;;
36189;SDS011;22232;50.914;13.858;2023-08-12T08:41:40;4.93;;;2.05;;
36189;SDS011;22232;50.914;13.858;2023-08-12T08:44:09;3.17;;;2.38;;
36189;SDS011;22232;50.914;13.858;2023-08-12T08:46:37;5.63;;;2.33;;
36189;SDS011;22232;50.914;13.858;2023-08-12T08:49:05;3.42;;;2.15;;
36189;SDS011;22232;50.914;13.858;2023-08-12T08:51:35;4.40;;;2.42;;
36189;SDS011;22232;50.914;13.858;2023-08-12T08:54:03;3.25;;;2.10;;
36189;SDS011;22232;50.914;13.858;2023-08-12T08:56:34;2.75;;;1.90;;
36189;SDS011;22232;50.914;13.858;2023-08-12T08:59:07;2.53;;;1.77;;
36189;SDS011;22232;50.914;13.858;2023-08-12T09:01:35;4.57;;;2.60;;
36189;SDS011;22232;50.914;13.858;2023-08-12T09:04:04;2.42;;;2.15;;
36189;SDS011;22232;50.914;13.858;2023-08-12T09:06:33;2.15;;;1.77;;
36189;SDS011;22232;50.914;13.858;2023-08-12T09:09:03;2.33;;;1.90;;
36189;SDS011;22232;50.914;13.858;2023-08-12T09:11:37;2.33;;;1.67;;
36189;SDS011;22232;50.914;13.858;2023-08-12T09:14:06;2.17;;;1.85;;
36189;SDS011;22232;50.914;13.858;2023-08-12T09:16:35;2.95;;;1.58;;
36189;SDS011;22232;50.914;13.858;2023-08-12T09:19:03;5.82;;;1.80;;
36189;SDS011;22232;50.914;13.858;2023-08-12T09:21:32;3.45;;;1.80;;
36189;SDS011;22232;50.914;13.858;2023-08-12T09:24:03;3.85;;;1.90;;
36189;SDS011;22232;50.914;13.858;2023-08-12T09:26:35;4.72;;;1.88;;
36189;SDS011;22232;50.914;13.858;2023-08-12T09:29:03;3.50;;;1.52;;
36189;SDS011;22232;50.914;13.858;2023-08-12T09:31:31;2.97;;;1.88;;
36189;SDS011;22232;50.914;13.858;2023-08-12T09:34:03;2.65;;;1.60;;
36189;SDS011;22232;50.914;13.858;2023-08-12T09:36:34;2.17;;;1.55;;
36189;SDS011;22232;50.914;13.858;2023-08-12T09:39:08;3.13;;;1.85;;
36189;SDS011;22232;50.914;13.858;2023-08-12T09:41:37;3.42;;;1.73;;
36189;SDS011;22232;50.914;13.858;2023-08-12T09:44:06;3.97;;;2.40;;
36189;SDS011;22232;50.914;13.858;2023-08-12T09:46:34;2.00;;;1.75;;
36189;SDS011;22232;50.914;13.858;2023-08-12T09:49:02;2.45;;;1.70;;
36189;SDS011;22232;50.914;13.858;2023-08-12T09:51:37;2.45;;;1.75;;
36189;SDS011;22232;50.914;13.858;2023-08-12T09:54:10;5.75;;;1.95;;
36189;SDS011;22232;50.914;13.858;2023-08-12T09:56:43;1.95;;;1.73;;
36189;SDS011;22232;50.914;13.858;2023-08-12T09:59:19;2.15;;;1.90;;
36189;SDS011;22232;50.914;13.858;2023-08-12T10:01:50;4.45;;;2.40;;
36189;SDS011;22232;50.914;13.858;2023-08-12T10:04:21;2.33;;;1.80;;
36189;SDS011;22232;50.914;13.858;2023-08-12T10:06:50;2.53;;;1.90;;
36189;SDS011;22232;50.914;13.858;2023-08-12T10:09:18;6.13;;;2.13;;
36189;SDS011;22232;50.914;13.858;2023-08-12T10:11:46;10.85;;;2.47;;
36189;SDS011;22232;50.914;13.858;2023-08-12T10:14:15;2.53;;;1.85;;
36189;SDS011;22232;50.914;13.858;2023-08-12T10:16:45;2.67;;;2.20;;
36189;SDS011;22232;50.914;13.858;2023-08-12T10:19:14;2.65;;;1.92;;
36189;SDS011;22232;50.914;13.858;2023-08-12T10:21:44;3.45;;;1.83;;
36189;SDS011;22232;50.914;13.858;2023-08-12T10:24:13;3.28;;;2.30;;
36189;SDS011;22232;50.914;13.858;2023-08-12T10:26:43;2.53;;;2.10;;
36189;SDS011;22232;50.914;13.858;2023-08-12T10:29:12;2.72;;;2.17;;
36189;SDS011;22232;50.914;13.858;2023-08-12T10:31:40;2.50;;;2.08;;
36189;SDS011;22232;50.914;13.858;2023-08-12T10:34:21;2.67;;;2.10;;
36189;SDS011;22232;50.914;13.858;2023-08-12T10:36:53;3.17;;;2.45;;
36189;SDS011;22232;50.914;13.858;2023-08-12T10:39:33;2.30;;;2.05;;
36189;SDS011;22232;50.914;13.858;2023-08-12T10:42:01;2.35;;;2.10;;
36189;SDS011;22232;50.914;13.858;2023-08-12T10:44:39;2.95;;;2.05;;
36189;SDS011;22232;50.914;13.858;2023-08-12T10:47:16;2.25;;;2.00;;
36189;SDS011;22232;50.914;13.858;2023-08-12T10:49:47;4.10;;;2.42;;
36189;SDS011;22232;50.914;13.858;2023-08-12T10:57:45;2.85;;;2.38;;
36189;SDS011;22232;50.914;13.858;2023-08-12T11:00:14;3.85;;;2.45;;
36189;SDS011;22232;50.914;13.858;2023-08-12T11:02:44;2.70;;;2.33;;
36189;SDS011;22232;50.914;13.858;2023-08-12T11:05:13;4.70;;;2.70;;
36189;SDS011;22232;50.914;13.858;2023-08-12T11:07:42;3.47;;;2.80;;
36189;SDS011;22232;50.914;13.858;2023-08-12T11:10:13;3.85;;;2.55;;
36189;SDS011;22232;50.914;13.858;2023-08-12T11:12:53;2.90;;;2.60;;
36189;SDS011;22232;50.914;13.858;2023-08-12T11:18:08;6.40;;;2.90;;
36189;SDS011;22232;50.914;13.858;2023-08-12T11:23:06;5.03;;;3.08;;
36189;SDS011;22232;50.914;13.858;2023-08-12T11:25:36;3.55;;;2.45;;
36189;SDS011;22232;50.914;13.858;2023-08-12T11:28:06;5.63;;;2.80;;
36189;SDS011;22232;50.914;13.858;2023-08-12T11:30:35;6.60;;;2.55;;
36189;SDS011;22232;50.914;13.858;2023-08-12T11:33:04;4.68;;;3.00;;
36189;SDS011;22232;50.914;13.858;2023-08-12T11:35:32;3.60;;;2.80;;
36189;SDS011;22232;50.914;13.858;2023-08-12T11:38:01;5.20;;;2.78;;
36189;SDS011;22232;50.914;13.858;2023-08-12T11:40:29;4.47;;;2.90;;
36189;SDS011;22232;50.914;13.858;2023-08-12T11:42:57;6.00;;;3.05;;
36189;SDS011;22232;50.914;13.858;2023-08-12T11:45:25;6.75;;;3.38;;
36189;SDS011;22232;50.914;13.858;2023-08-12T11:47:55;4.82;;;3.10;;
36189;SDS011;22232;50.914;13.858;2023-08-12T11:50:24;5.35;;;3.10;;
36189;SDS011;22232;50.914;13.858;2023-08-12T11:52:55;4.97;;;3.33;;
36189;SDS011;22232;50.914;13.858;2023-08-12T11:55:24;5.00;;;3.60;;
36189;SDS011;22232;50.914;13.858;2023-08-12T12:02:05;5.70;;;3.35;;
36189;SDS011;22232;50.914;13.858;2023-08-12T12:04:34;4.63;;;3.78;;
36189;SDS011;22232;50.914;13.858;2023-08-12T12:07:02;6.53;;;3.92;;
36189;SDS011;22232;50.914;13.858;2023-08-12T12:09:33;4.50;;;3.60;;
36189;SDS011;22232;50.914;13.858;2023-08-12T12:12:01;5.38;;;3.47;;
36189;SDS011;22232;50.914;13.858;2023-08-12T12:14:30;7.43;;;3.80;;
36189;SDS011;22232;50.914;13.858;2023-08-12T12:16:58;5.05;;;3.92;;
36189;SDS011;22232;50.914;13.858;2023-08-12T12:19:26;6.07;;;3.92;;
36189;SDS011;22232;50.914;13.858;2023-08-12T12:21:54;3.80;;;3.42;;
36189;SDS011;22232;50.914;13.858;2023-08-12T12:24:22;6.78;;;3.70;;
36189;SDS011;22232;50.914;13.858;2023-08-12T12:26:56;5.63;;;4.15;;
36189;SDS011;22232;50.914;13.858;2023-08-12T12:29:25;6.50;;;3.65;;
36189;SDS011;22232;50.914;13.858;2023-08-12T12:31:52;6.30;;;3.47;;
36189;SDS011;22232;50.914;13.858;2023-08-12T12:34:20;6.22;;;3.67;;
36189;SDS011;22232;50.914;13.858;2023-08-12T12:36:50;7.03;;;3.72;;
36189;SDS011;22232;50.914;13.858;2023-08-12T12:39:17;6.13;;;3.80;;
36189;SDS011;22232;50.914;13.858;2023-08-12T12:41:45;4.93;;;3.60;;
36189;SDS011;22232;50.914;13.858;2023-08-12T12:44:14;6.88;;;3.95;;
36189;SDS011;22232;50.914;13.858;2023-08-12T12:46:42;5.75;;;3.72;;
36189;SDS011;22232;50.914;13.858;2023-08-12T12:49:10;8.07;;;3.67;;
36189;SDS011;22232;50.914;13.858;2023-08-12T12:51:38;4.95;;;3.70;;
36189;SDS011;22232;50.914;13.858;2023-08-12T12:54:06;8.55;;;3.40;;
36189;SDS011;22232;50.914;13.858;2023-08-12T12:56:34;4.70;;;3.67;;
36189;SDS011;22232;50.914;13.858;2023-08-12T12:59:02;8.00;;;4.53;;
36189;SDS011;22232;50.914;13.858;2023-08-12T13:01:30;4.80;;;3.58;;
36189;SDS011;22232;50.914;13.858;2023-08-12T13:03:58;6.90;;;3.70;;
36189;SDS011;22232;50.914;13.858;2023-08-12T13:06:25;3.85;;;3.45;;
36189;SDS011;22232;50.914;13.858;2023-08-12T13:08:53;5.85;;;3.30;;
36189;SDS011;22232;50.914;13.858;2023-08-12T13:11:21;5.68;;;3.63;;
36189;SDS011;22232;50.914;13.858;2023-08-12T13:13:49;9.23;;;4.05;;
36189;SDS011;22232;50.914;13.858;2023-08-12T13:16:16;5.32;;;3.55;;
36189;SDS011;22232;50.914;13.858;2023-08-12T13:18:45;6.05;;;3.83;;
36189;SDS011;22232;50.914;13.858;2023-08-12T13:21:13;4.50;;;4.10;;
36189;SDS011;22232;50.914;13.858;2023-08-12T13:23:42;7.80;;;4.18;;
36189;SDS011;22232;50.914;13.858;2023-08-12T13:26:10;5.22;;;3.70;;
36189;SDS011;22232;50.914;13.858;2023-08-12T13:28:38;4.20;;;3.80;;
36189;SDS011;22232;50.914;13.858;2023-08-12T13:31:07;5.45;;;3.70;;
36189;SDS011;22232;50.914;13.858;2023-08-12T13:33:35;4.35;;;3.67;;
36189;SDS011;22232;50.914;13.858;2023-08-12T13:36:03;4.30;;;3.58;;
36189;SDS011;22232;50.914;13.858;2023-08-12T13:38:31;5.05;;;3.92;;
36189;SDS011;22232;50.914;13.858;2023-08-12T13:40:59;5.78;;;3.60;;
36189;SDS011;22232;50.914;13.858;2023-08-12T13:43:27;6.00;;;3.20;;
36189;SDS011;22232;50.914;13.858;2023-08-12T13:45:55;5.28;;;3.10;;
36189;SDS011;22232;50.914;13.858;2023-08-12T13:48:23;4.25;;;3.25;;
36189;SDS011;22232;50.914;13.858;2023-08-12T13:50:51;4.13;;;2.92;;
36189;SDS011;22232;50.914;13.858;2023-08-12T13:53:19;4.78;;;3.10;;
36189;SDS011;22232;50.914;13.858;2023-08-12T13:55:47;4.07;;;2.80;;
36189;SDS011;22232;50.914;13.858;2023-08-12T13:58:15;3.42;;;2.90;;
36189;SDS011;22232;50.914;13.858;2023-08-12T14:00:43;3.25;;;2.60;;
36189;SDS011;22232;50.914;13.858;2023-08-12T14:03:10;3.03;;;2.78;;
36189;SDS011;22232;50.914;13.858;2023-08-12T14:05:39;6.50;;;3.05;;
36189;SDS011;22232;50.914;13.858;2023-08-12T14:08:07;4.25;;;2.80;;
36189;SDS011;22232;50.914;13.858;2023-08-12T14:10:35;3.03;;;2.78;;
36189;SDS011;22232;50.914;13.858;2023-08-12T14:13:04;4.30;;;2.88;;
36189;SDS011;22232;50.914;13.858;2023-08-12T14:15:34;3.50;;;3.00;;
36189;SDS011;22232;50.914;13.858;2023-08-12T14:18:02;6.97;;;3.10;;
36189;SDS011;22232;50.914;13.858;2023-08-12T14:20:30;5.93;;;2.90;;
36189;SDS011;22232;50.914;13.858;2023-08-12T14:22:58;3.33;;;2.88;;
36189;SDS011;22232;50.914;13.858;2023-08-12T14:25:27;5.70;;;2.92;;
36189;SDS011;22232;50.914;13.858;2023-08-12T14:27:55;3.85;;;2.60;;
36189;SDS011;22232;50.914;13.858;2023-08-12T14:30:23;4.40;;;3.10;;
36189;SDS011;22232;50.914;13.858;2023-08-12T14:32:53;3.35;;;3.05;;
36189;SDS011;22232;50.914;13.858;2023-08-12T14:35:21;3.08;;;2.78;;
36189;SDS011;22232;50.914;13.858;2023-08-12T14:37:49;4.03;;;2.85;;
36189;SDS011;22232;50.914;13.858;2023-08-12T14:40:18;3.30;;;2.58;;
36189;SDS011;22232;50.914;13.858;2023-08-12T14:42:46;5.20;;;3.08;;
36189;SDS011;22232;50.914;13.858;2023-08-12T14:45:14;4.32;;;2.97;;
36189;SDS011;22232;50.914;13.858;2023-08-12T14:47:42;5.03;;;2.90;;
36189;SDS011;22232;50.914;13.858;2023-08-12T14:50:10;2.95;;;2.75;;
36189;SDS011;22232;50.914;13.858;2023-08-12T14:52:38;3.65;;;2.83;;
36189;SDS011;22232;50.914;13.858;2023-08-12T14:55:06;3.15;;;2.70;;
36189;SDS011;22232;50.914;13.858;2023-08-12T14:57:34;6.05;;;2.75;;